KDSV/DSV METAR and TAF weather

Enter ICAO airport designator
Station Type Date Time Source
KDSV METAR 2019/07/18 10:59 UTC NOAA

KDSV 181059Z AUTO 33003KT 2 1/2SM BR OVC002 22/21 A2994 RMK AO2 T02170211


Station Type Date Time Source
KDSV Decoded METAR 2019/07/18 10:59 UTC NOAA

DANSVILLE MUNICIPAL AIRPORT, NY, United States (KDSV) 42-34N 077-43W 198M
Jul 18, 2019 - 06:59 AM EDT / 2019.07.18 1059 UTC
Wind: from the NNW (330 degrees) at 3 MPH (3 KT):0
Visibility: 2 1/2 mile(s):0
Sky conditions: overcast
Weather: mist
Temperature: 71.1 F (21.7 C)
Dew Point: 70.0 F (21.1 C)
Relative Humidity: 96%
Pressure (altimeter): 29.94 in. Hg (1013 hPa)
ob: KDSV 181059Z AUTO 33003KT 2 1/2SM BR OVC002 22/21 A2994 RMK AO2 T02170211
cycle: 11

Station Type Date Time Source
KDSV TAF UTC NOAA

Error!

Example: see airport list